sensor_id;sensor_type;location;lat;lon;timestamp;P1;durP1;ratioP1;P2;durP2;ratioP2
18360;SDS011;9308;48.550;9.108;2022-09-25T00:00:51;33.83;;;17.30;;
18360;SDS011;9308;48.550;9.108;2022-09-25T00:03:22;40.30;;;17.10;;
18360;SDS011;9308;48.550;9.108;2022-09-25T00:05:49;56.73;;;18.97;;
18360;SDS011;9308;48.550;9.108;2022-09-25T00:08:16;47.63;;;18.43;;
18360;SDS011;9308;48.550;9.108;2022-09-25T00:10:48;48.53;;;16.03;;
18360;SDS011;9308;48.550;9.108;2022-09-25T00:13:15;27.83;;;15.70;;
18360;SDS011;9308;48.550;9.108;2022-09-25T00:15:46;33.07;;;15.50;;
18360;SDS011;9308;48.550;9.108;2022-09-25T00:18:16;70.83;;;18.40;;
18360;SDS011;9308;48.550;9.108;2022-09-25T00:21:02;80.53;;;17.97;;
18360;SDS011;9308;48.550;9.108;2022-09-25T00:23:29;96.67;;;18.70;;
18360;SDS011;9308;48.550;9.108;2022-09-25T00:25:54;85.53;;;17.20;;
18360;SDS011;9308;48.550;9.108;2022-09-25T00:28:21;60.17;;;16.40;;
18360;SDS011;9308;48.550;9.108;2022-09-25T00:30:46;72.47;;;16.60;;
18360;SDS011;9308;48.550;9.108;2022-09-25T00:33:12;64.70;;;15.73;;
18360;SDS011;9308;48.550;9.108;2022-09-25T00:35:37;111.30;;;18.57;;
18360;SDS011;9308;48.550;9.108;2022-09-25T00:38:02;74.17;;;16.57;;
18360;SDS011;9308;48.550;9.108;2022-09-25T00:40:28;63.83;;;15.73;;
18360;SDS011;9308;48.550;9.108;2022-09-25T00:42:53;23.20;;;13.17;;
18360;SDS011;9308;48.550;9.108;2022-09-25T00:45:19;75.63;;;15.57;;
18360;SDS011;9308;48.550;9.108;2022-09-25T00:47:53;96.77;;;18.13;;
18360;SDS011;9308;48.550;9.108;2022-09-25T00:50:25;77.40;;;16.73;;
18360;SDS011;9308;48.550;9.108;2022-09-25T00:53:07;104.90;;;18.90;;
18360;SDS011;9308;48.550;9.108;2022-09-25T00:55:36;134.07;;;23.23;;
18360;SDS011;9308;48.550;9.108;2022-09-25T00:58:04;143.00;;;24.07;;
18360;SDS011;9308;48.550;9.108;2022-09-25T01:00:31;74.47;;;18.37;;
18360;SDS011;9308;48.550;9.108;2022-09-25T01:02:57;191.80;;;25.70;;
18360;SDS011;9308;48.550;9.108;2022-09-25T01:05:25;129.47;;;21.07;;
18360;SDS011;9308;48.550;9.108;2022-09-25T01:07:52;158.03;;;24.80;;
18360;SDS011;9308;48.550;9.108;2022-09-25T01:10:21;119.93;;;23.90;;
18360;SDS011;9308;48.550;9.108;2022-09-25T01:12:47;84.93;;;21.00;;
18360;SDS011;9308;48.550;9.108;2022-09-25T01:15:15;115.10;;;22.07;;
18360;SDS011;9308;48.550;9.108;2022-09-25T01:17:55;58.93;;;17.40;;
18360;SDS011;9308;48.550;9.108;2022-09-25T01:20:54;81.30;;;19.10;;
18360;SDS011;9308;48.550;9.108;2022-09-25T01:28:55;132.30;;;22.37;;
18360;SDS011;9308;48.550;9.108;2022-09-25T01:32:09;63.43;;;15.70;;
18360;SDS011;9308;48.550;9.108;2022-09-25T01:37:07;199.17;;;26.60;;
18360;SDS011;9308;48.550;9.108;2022-09-25T01:39:46;165.73;;;25.40;;
18360;SDS011;9308;48.550;9.108;2022-09-25T01:42:25;127.63;;;23.27;;
18360;SDS011;9308;48.550;9.108;2022-09-25T01:44:58;195.03;;;27.70;;
18360;SDS011;9308;48.550;9.108;2022-09-25T01:47:27;295.07;;;32.20;;
18360;SDS011;9308;48.550;9.108;2022-09-25T01:50:01;156.50;;;26.47;;
18360;SDS011;9308;48.550;9.108;2022-09-25T01:52:37;124.23;;;25.13;;
18360;SDS011;9308;48.550;9.108;2022-09-25T01:55:09;162.13;;;25.17;;
18360;SDS011;9308;48.550;9.108;2022-09-25T01:57:47;149.60;;;25.40;;
18360;SDS011;9308;48.550;9.108;2022-09-25T02:00:18;73.80;;;19.90;;
18360;SDS011;9308;48.550;9.108;2022-09-25T02:05:20;108.33;;;23.20;;
18360;SDS011;9308;48.550;9.108;2022-09-25T02:07:59;89.87;;;23.10;;
18360;SDS011;9308;48.550;9.108;2022-09-25T02:10:33;151.77;;;23.73;;
18360;SDS011;9308;48.550;9.108;2022-09-25T02:13:18;137.00;;;24.17;;
18360;SDS011;9308;48.550;9.108;2022-09-25T02:15:50;102.50;;;21.27;;
18360;SDS011;9308;48.550;9.108;2022-09-25T02:18:19;97.70;;;23.27;;
18360;SDS011;9308;48.550;9.108;2022-09-25T02:24:25;52.27;;;18.73;;
18360;SDS011;9308;48.550;9.108;2022-09-25T02:26:47;57.63;;;19.67;;
18360;SDS011;9308;48.550;9.108;2022-09-25T02:29:14;37.77;;;17.10;;
18360;SDS011;9308;48.550;9.108;2022-09-25T02:34:07;33.50;;;17.30;;
18360;SDS011;9308;48.550;9.108;2022-09-25T02:36:33;57.33;;;18.47;;
18360;SDS011;9308;48.550;9.108;2022-09-25T02:38:59;51.20;;;17.77;;
18360;SDS011;9308;48.550;9.108;2022-09-25T02:41:36;47.30;;;15.63;;
18360;SDS011;9308;48.550;9.108;2022-09-25T02:49:46;65.43;;;22.10;;
18360;SDS011;9308;48.550;9.108;2022-09-25T02:54:49;47.43;;;21.40;;
18360;SDS011;9308;48.550;9.108;2022-09-25T02:57:22;58.87;;;22.80;;
18360;SDS011;9308;48.550;9.108;2022-09-25T02:59:56;32.33;;;19.20;;
18360;SDS011;9308;48.550;9.108;2022-09-25T03:02:25;108.67;;;24.00;;
18360;SDS011;9308;48.550;9.108;2022-09-25T03:04:53;39.67;;;20.20;;
18360;SDS011;9308;48.550;9.108;2022-09-25T03:07:20;52.70;;;19.87;;
18360;SDS011;9308;48.550;9.108;2022-09-25T03:09:46;39.20;;;15.53;;
18360;SDS011;9308;48.550;9.108;2022-09-25T03:12:15;30.23;;;15.83;;
18360;SDS011;9308;48.550;9.108;2022-09-25T03:14:41;29.70;;;14.93;;
18360;SDS011;9308;48.550;9.108;2022-09-25T03:17:07;25.73;;;15.60;;
18360;SDS011;9308;48.550;9.108;2022-09-25T03:19:36;24.27;;;15.27;;
18360;SDS011;9308;48.550;9.108;2022-09-25T03:22:02;19.20;;;12.23;;
18360;SDS011;9308;48.550;9.108;2022-09-25T03:24:28;29.83;;;12.60;;
18360;SDS011;9308;48.550;9.108;2022-09-25T03:26:53;22.13;;;11.77;;
18360;SDS011;9308;48.550;9.108;2022-09-25T03:29:19;18.20;;;12.60;;
18360;SDS011;9308;48.550;9.108;2022-09-25T03:31:45;14.60;;;13.10;;
18360;SDS011;9308;48.550;9.108;2022-09-25T03:34:12;14.70;;;13.30;;
18360;SDS011;9308;48.550;9.108;2022-09-25T03:36:39;13.50;;;12.20;;
18360;SDS011;9308;48.550;9.108;2022-09-25T03:39:05;14.80;;;13.50;;
18360;SDS011;9308;48.550;9.108;2022-09-25T03:41:32;13.63;;;12.33;;
18360;SDS011;9308;48.550;9.108;2022-09-25T03:43:59;13.80;;;12.40;;
18360;SDS011;9308;48.550;9.108;2022-09-25T03:46:26;13.93;;;12.63;;
18360;SDS011;9308;48.550;9.108;2022-09-25T03:49:01;13.70;;;12.40;;
18360;SDS011;9308;48.550;9.108;2022-09-25T03:51:28;20.43;;;13.70;;
18360;SDS011;9308;48.550;9.108;2022-09-25T03:53:55;15.73;;;14.10;;
18360;SDS011;9308;48.550;9.108;2022-09-25T03:56:22;16.47;;;14.50;;
18360;SDS011;9308;48.550;9.108;2022-09-25T03:58:49;18.80;;;15.03;;
18360;SDS011;9308;48.550;9.108;2022-09-25T04:01:16;18.23;;;16.43;;
18360;SDS011;9308;48.550;9.108;2022-09-25T04:03:43;17.47;;;15.43;;
18360;SDS011;9308;48.550;9.108;2022-09-25T04:06:12;18.17;;;16.37;;
18360;SDS011;9308;48.550;9.108;2022-09-25T04:08:42;20.53;;;16.90;;
18360;SDS011;9308;48.550;9.108;2022-09-25T04:11:08;20.60;;;16.77;;
18360;SDS011;9308;48.550;9.108;2022-09-25T04:13:34;19.87;;;17.50;;
18360;SDS011;9308;48.550;9.108;2022-09-25T04:16:01;18.57;;;16.50;;
18360;SDS011;9308;48.550;9.108;2022-09-25T04:18:29;17.77;;;15.87;;
18360;SDS011;9308;48.550;9.108;2022-09-25T04:21:03;17.23;;;15.43;;
18360;SDS011;9308;48.550;9.108;2022-09-25T04:23:30;16.73;;;15.03;;
18360;SDS011;9308;48.550;9.108;2022-09-25T04:25:56;20.33;;;15.97;;
18360;SDS011;9308;48.550;9.108;2022-09-25T04:28:22;18.67;;;16.77;;
18360;SDS011;9308;48.550;9.108;2022-09-25T04:30:48;25.17;;;16.13;;
18360;SDS011;9308;48.550;9.108;2022-09-25T04:33:14;39.37;;;16.67;;
18360;SDS011;9308;48.550;9.108;2022-09-25T04:35:59;134.23;;;22.20;;
18360;SDS011;9308;48.550;9.108;2022-09-25T04:38:25;143.57;;;22.23;;
18360;SDS011;9308;48.550;9.108;2022-09-25T04:40:51;117.57;;;20.20;;
18360;SDS011;9308;48.550;9.108;2022-09-25T04:43:16;97.40;;;18.37;;
18360;SDS011;9308;48.550;9.108;2022-09-25T04:45:42;76.73;;;18.40;;
18360;SDS011;9308;48.550;9.108;2022-09-25T04:48:08;93.17;;;19.30;;
18360;SDS011;9308;48.550;9.108;2022-09-25T04:50:33;52.00;;;16.77;;
18360;SDS011;9308;48.550;9.108;2022-09-25T04:52:59;52.00;;;17.07;;
18360;SDS011;9308;48.550;9.108;2022-09-25T04:55:25;93.97;;;19.57;;
18360;SDS011;9308;48.550;9.108;2022-09-25T04:57:52;51.37;;;14.57;;
18360;SDS011;9308;48.550;9.108;2022-09-25T05:00:19;56.60;;;17.30;;
18360;SDS011;9308;48.550;9.108;2022-09-25T05:02:45;49.20;;;17.73;;
18360;SDS011;9308;48.550;9.108;2022-09-25T05:05:11;75.97;;;24.20;;
18360;SDS011;9308;48.550;9.108;2022-09-25T05:07:38;71.83;;;21.87;;
18360;SDS011;9308;48.550;9.108;2022-09-25T05:10:04;45.43;;;21.37;;
18360;SDS011;9308;48.550;9.108;2022-09-25T05:12:32;57.77;;;18.90;;
18360;SDS011;9308;48.550;9.108;2022-09-25T05:14:57;108.67;;;28.27;;
18360;SDS011;9308;48.550;9.108;2022-09-25T05:17:22;127.70;;;32.50;;
18360;SDS011;9308;48.550;9.108;2022-09-25T05:19:48;135.93;;;30.90;;
18360;SDS011;9308;48.550;9.108;2022-09-25T05:22:14;57.30;;;20.50;;
18360;SDS011;9308;48.550;9.108;2022-09-25T05:24:39;33.27;;;15.90;;
18360;SDS011;9308;48.550;9.108;2022-09-25T05:27:05;28.67;;;12.90;;
18360;SDS011;9308;48.550;9.108;2022-09-25T05:29:31;104.83;;;20.20;;
18360;SDS011;9308;48.550;9.108;2022-09-25T05:31:56;32.13;;;16.20;;
18360;SDS011;9308;48.550;9.108;2022-09-25T05:34:22;22.50;;;14.47;;
18360;SDS011;9308;48.550;9.108;2022-09-25T05:36:47;76.20;;;18.90;;
18360;SDS011;9308;48.550;9.108;2022-09-25T05:39:13;30.07;;;15.43;;
18360;SDS011;9308;48.550;9.108;2022-09-25T05:41:38;20.60;;;14.20;;
18360;SDS011;9308;48.550;9.108;2022-09-25T05:44:03;17.53;;;14.90;;
18360;SDS011;9308;48.550;9.108;2022-09-25T05:46:36;16.90;;;15.10;;
18360;SDS011;9308;48.550;9.108;2022-09-25T05:49:02;18.33;;;14.77;;
18360;SDS011;9308;48.550;9.108;2022-09-25T05:51:28;20.43;;;14.10;;
18360;SDS011;9308;48.550;9.108;2022-09-25T05:53:54;21.00;;;15.60;;
18360;SDS011;9308;48.550;9.108;2022-09-25T05:56:20;30.30;;;15.40;;
18360;SDS011;9308;48.550;9.108;2022-09-25T05:58:49;47.40;;;16.30;;
18360;SDS011;9308;48.550;9.108;2022-09-25T06:01:15;28.03;;;14.40;;
18360;SDS011;9308;48.550;9.108;2022-09-25T06:03:41;32.30;;;15.27;;
18360;SDS011;9308;48.550;9.108;2022-09-25T06:06:06;17.17;;;12.93;;
18360;SDS011;9308;48.550;9.108;2022-09-25T06:08:32;18.40;;;12.40;;
18360;SDS011;9308;48.550;9.108;2022-09-25T06:10:59;14.40;;;13.10;;
18360;SDS011;9308;48.550;9.108;2022-09-25T06:13:26;14.90;;;13.50;;
18360;SDS011;9308;48.550;9.108;2022-09-25T06:15:53;13.80;;;12.50;;
18360;SDS011;9308;48.550;9.108;2022-09-25T06:18:19;14.33;;;13.03;;
18360;SDS011;9308;48.550;9.108;2022-09-25T06:20:46;15.13;;;13.70;;
18360;SDS011;9308;48.550;9.108;2022-09-25T06:23:11;15.10;;;13.80;;
18360;SDS011;9308;48.550;9.108;2022-09-25T06:25:37;15.87;;;14.37;;
18360;SDS011;9308;48.550;9.108;2022-09-25T06:28:03;15.23;;;13.80;;
18360;SDS011;9308;48.550;9.108;2022-09-25T06:30:30;15.00;;;13.60;;
18360;SDS011;9308;48.550;9.108;2022-09-25T06:33:04;15.50;;;14.10;;
18360;SDS011;9308;48.550;9.108;2022-09-25T06:35:31;18.10;;;16.33;;
18360;SDS011;9308;48.550;9.108;2022-09-25T06:37:58;19.10;;;17.23;;
18360;SDS011;9308;48.550;9.108;2022-09-25T06:40:26;19.13;;;17.33;;
18360;SDS011;9308;48.550;9.108;2022-09-25T06:42:59;19.63;;;17.93;;
18360;SDS011;9308;48.550;9.108;2022-09-25T06:45:26;17.93;;;15.90;;
18360;SDS011;9308;48.550;9.108;2022-09-25T06:47:59;18.50;;;15.93;;
18360;SDS011;9308;48.550;9.108;2022-09-25T06:50:29;20.57;;;18.37;;
18360;SDS011;9308;48.550;9.108;2022-09-25T06:53:00;26.20;;;22.67;;
18360;SDS011;9308;48.550;9.108;2022-09-25T06:55:26;23.97;;;20.20;;
18360;SDS011;9308;48.550;9.108;2022-09-25T06:57:52;21.57;;;18.40;;
18360;SDS011;9308;48.550;9.108;2022-09-25T07:00:18;20.00;;;17.57;;
18360;SDS011;9308;48.550;9.108;2022-09-25T07:02:43;19.50;;;16.40;;
18360;SDS011;9308;48.550;9.108;2022-09-25T07:05:27;24.50;;;19.10;;
18360;SDS011;9308;48.550;9.108;2022-09-25T07:07:53;20.97;;;17.57;;
18360;SDS011;9308;48.550;9.108;2022-09-25T07:10:20;21.90;;;19.27;;
18360;SDS011;9308;48.550;9.108;2022-09-25T07:12:45;36.17;;;17.97;;
18360;SDS011;9308;48.550;9.108;2022-09-25T07:15:12;19.73;;;17.67;;
18360;SDS011;9308;48.550;9.108;2022-09-25T07:17:41;19.00;;;16.83;;
18360;SDS011;9308;48.550;9.108;2022-09-25T07:20:07;19.10;;;16.40;;
18360;SDS011;9308;48.550;9.108;2022-09-25T07:22:37;18.67;;;16.67;;
18360;SDS011;9308;48.550;9.108;2022-09-25T07:25:03;19.97;;;17.80;;
18360;SDS011;9308;48.550;9.108;2022-09-25T07:27:29;19.47;;;17.47;;
18360;SDS011;9308;48.550;9.108;2022-09-25T07:29:54;18.53;;;16.70;;
18360;SDS011;9308;48.550;9.108;2022-09-25T07:32:20;22.37;;;20.00;;
18360;SDS011;9308;48.550;9.108;2022-09-25T07:34:46;20.77;;;18.60;;
18360;SDS011;9308;48.550;9.108;2022-09-25T07:37:15;18.37;;;16.67;;
18360;SDS011;9308;48.550;9.108;2022-09-25T07:39:41;18.73;;;16.90;;
18360;SDS011;9308;48.550;9.108;2022-09-25T07:42:07;17.67;;;15.87;;
18360;SDS011;9308;48.550;9.108;2022-09-25T07:44:33;18.40;;;16.60;;
18360;SDS011;9308;48.550;9.108;2022-09-25T07:46:58;18.23;;;16.50;;
18360;SDS011;9308;48.550;9.108;2022-09-25T07:49:25;17.50;;;15.87;;
18360;SDS011;9308;48.550;9.108;2022-09-25T07:51:51;17.97;;;16.17;;
18360;SDS011;9308;48.550;9.108;2022-09-25T07:54:16;17.90;;;16.30;;
18360;SDS011;9308;48.550;9.108;2022-09-25T07:56:42;17.30;;;15.70;;
18360;SDS011;9308;48.550;9.108;2022-09-25T07:59:07;20.30;;;18.17;;
18360;SDS011;9308;48.550;9.108;2022-09-25T08:01:33;19.87;;;17.87;;
18360;SDS011;9308;48.550;9.108;2022-09-25T08:03:58;18.23;;;16.47;;
18360;SDS011;9308;48.550;9.108;2022-09-25T08:06:23;17.27;;;15.60;;
18360;SDS011;9308;48.550;9.108;2022-09-25T08:08:49;16.13;;;14.63;;
18360;SDS011;9308;48.550;9.108;2022-09-25T08:11:15;17.07;;;15.47;;
18360;SDS011;9308;48.550;9.108;2022-09-25T08:13:41;21.60;;;19.67;;
18360;SDS011;9308;48.550;9.108;2022-09-25T08:16:07;17.37;;;15.77;;
18360;SDS011;9308;48.550;9.108;2022-09-25T08:18:38;18.57;;;16.87;;
18360;SDS011;9308;48.550;9.108;2022-09-25T08:21:05;14.70;;;13.50;;
18360;SDS011;9308;48.550;9.108;2022-09-25T08:23:31;14.83;;;13.53;;
18360;SDS011;9308;48.550;9.108;2022-09-25T08:25:57;14.20;;;13.00;;
18360;SDS011;9308;48.550;9.108;2022-09-25T08:28:23;15.30;;;13.80;;
18360;SDS011;9308;48.550;9.108;2022-09-25T08:30:48;14.97;;;13.67;;
18360;SDS011;9308;48.550;9.108;2022-09-25T08:33:14;14.37;;;13.27;;
18360;SDS011;9308;48.550;9.108;2022-09-25T08:35:40;13.87;;;12.70;;
18360;SDS011;9308;48.550;9.108;2022-09-25T08:38:07;14.20;;;12.80;;
18360;SDS011;9308;48.550;9.108;2022-09-25T08:40:33;13.07;;;11.90;;
18360;SDS011;9308;48.550;9.108;2022-09-25T08:43:04;13.33;;;12.23;;
18360;SDS011;9308;48.550;9.108;2022-09-25T08:45:33;13.50;;;12.50;;
18360;SDS011;9308;48.550;9.108;2022-09-25T08:48:26;12.93;;;11.93;;
18360;SDS011;9308;48.550;9.108;2022-09-25T08:51:14;13.30;;;12.20;;
18360;SDS011;9308;48.550;9.108;2022-09-25T08:53:40;12.80;;;11.80;;
18360;SDS011;9308;48.550;9.108;2022-09-25T08:56:13;11.93;;;11.03;;
18360;SDS011;9308;48.550;9.108;2022-09-25T08:58:58;11.97;;;11.00;;
18360;SDS011;9308;48.550;9.108;2022-09-25T09:01:49;12.67;;;11.57;;
18360;SDS011;9308;48.550;9.108;2022-09-25T09:04:22;12.97;;;11.80;;
18360;SDS011;9308;48.550;9.108;2022-09-25T09:06:55;12.50;;;11.40;;
18360;SDS011;9308;48.550;9.108;2022-09-25T09:09:28;13.10;;;11.97;;
18360;SDS011;9308;48.550;9.108;2022-09-25T09:14:31;13.03;;;11.93;;
18360;SDS011;9308;48.550;9.108;2022-09-25T09:17:19;13.67;;;12.47;;
18360;SDS011;9308;48.550;9.108;2022-09-25T09:19:53;12.83;;;11.83;;
18360;SDS011;9308;48.550;9.108;2022-09-25T09:22:35;13.37;;;12.27;;
18360;SDS011;9308;48.550;9.108;2022-09-25T09:28:09;13.07;;;11.93;;
18360;SDS011;9308;48.550;9.108;2022-09-25T09:36:33;12.30;;;11.40;;
18360;SDS011;9308;48.550;9.108;2022-09-25T09:42:05;11.40;;;10.50;;
18360;SDS011;9308;48.550;9.108;2022-09-25T09:50:16;12.60;;;11.50;;
18360;SDS011;9308;48.550;9.108;2022-09-25T09:52:43;11.27;;;10.43;;
18360;SDS011;9308;48.550;9.108;2022-09-25T09:55:22;11.00;;;10.00;;
18360;SDS011;9308;48.550;9.108;2022-09-25T09:57:53;10.63;;;9.63;;
18360;SDS011;9308;48.550;9.108;2022-09-25T10:00:21;9.93;;;9.13;;
18360;SDS011;9308;48.550;9.108;2022-09-25T10:02:50;11.30;;;10.30;;
18360;SDS011;9308;48.550;9.108;2022-09-25T10:05:31;10.30;;;9.50;;
18360;SDS011;9308;48.550;9.108;2022-09-25T10:08:00;9.70;;;8.90;;
18360;SDS011;9308;48.550;9.108;2022-09-25T10:10:33;8.90;;;8.30;;
18360;SDS011;9308;48.550;9.108;2022-09-25T10:13:01;9.70;;;9.00;;
18360;SDS011;9308;48.550;9.108;2022-09-25T10:15:35;9.80;;;9.00;;
18360;SDS011;9308;48.550;9.108;2022-09-25T10:18:05;9.63;;;8.83;;
18360;SDS011;9308;48.550;9.108;2022-09-25T10:20:37;9.83;;;8.87;;
18360;SDS011;9308;48.550;9.108;2022-09-25T10:23:13;9.07;;;8.37;;
18360;SDS011;9308;48.550;9.108;2022-09-25T10:25:59;10.10;;;9.20;;
18360;SDS011;9308;48.550;9.108;2022-09-25T10:28:26;11.40;;;10.50;;
18360;SDS011;9308;48.550;9.108;2022-09-25T10:30:55;10.87;;;9.93;;
18360;SDS011;9308;48.550;9.108;2022-09-25T10:33:23;9.53;;;8.83;;
18360;SDS011;9308;48.550;9.108;2022-09-25T10:35:50;9.47;;;8.60;;
18360;SDS011;9308;48.550;9.108;2022-09-25T10:43:50;11.20;;;10.17;;
18360;SDS011;9308;48.550;9.108;2022-09-25T10:46:26;10.70;;;9.80;;
18360;SDS011;9308;48.550;9.108;2022-09-25T10:49:13;9.60;;;8.80;;
18360;SDS011;9308;48.550;9.108;2022-09-25T10:52:01;10.03;;;9.33;;
18360;SDS011;9308;48.550;9.108;2022-09-25T10:54:29;11.07;;;10.10;;
18360;SDS011;9308;48.550;9.108;2022-09-25T10:56:55;10.10;;;9.20;;
18360;SDS011;9308;48.550;9.108;2022-09-25T10:59:20;9.93;;;8.97;;
18360;SDS011;9308;48.550;9.108;2022-09-25T11:01:47;11.33;;;10.50;;
18360;SDS011;9308;48.550;9.108;2022-09-25T11:04:16;11.20;;;10.20;;
18360;SDS011;9308;48.550;9.108;2022-09-25T11:06:49;14.47;;;10.10;;
18360;SDS011;9308;48.550;9.108;2022-09-25T11:09:21;11.27;;;10.33;;
18360;SDS011;9308;48.550;9.108;2022-09-25T11:11:52;11.63;;;10.57;;
18360;SDS011;9308;48.550;9.108;2022-09-25T11:14:30;10.20;;;9.30;;
18360;SDS011;9308;48.550;9.108;2022-09-25T11:16:58;14.10;;;11.27;;
18360;SDS011;9308;48.550;9.108;2022-09-25T11:19:29;9.80;;;8.87;;
18360;SDS011;9308;48.550;9.108;2022-09-25T11:22:03;10.10;;;9.27;;
18360;SDS011;9308;48.550;9.108;2022-09-25T11:30:09;13.13;;;11.93;;
18360;SDS011;9308;48.550;9.108;2022-09-25T11:32:41;16.50;;;14.67;;
18360;SDS011;9308;48.550;9.108;2022-09-25T11:44:26;11.00;;;10.10;;
18360;SDS011;9308;48.550;9.108;2022-09-25T11:47:07;11.77;;;10.77;;
18360;SDS011;9308;48.550;9.108;2022-09-25T11:49:40;11.10;;;10.20;;
18360;SDS011;9308;48.550;9.108;2022-09-25T11:52:16;10.97;;;10.07;;
18360;SDS011;9308;48.550;9.108;2022-09-25T11:57:30;10.73;;;9.83;;
18360;SDS011;9308;48.550;9.108;2022-09-25T12:00:25;10.70;;;9.80;;
18360;SDS011;9308;48.550;9.108;2022-09-25T12:06:28;12.77;;;11.60;;
18360;SDS011;9308;48.550;9.108;2022-09-25T12:09:14;13.57;;;12.27;;
18360;SDS011;9308;48.550;9.108;2022-09-25T12:20:59;10.77;;;9.67;;
18360;SDS011;9308;48.550;9.108;2022-09-25T12:23:32;11.17;;;10.17;;
18360;SDS011;9308;48.550;9.108;2022-09-25T12:27:00;9.70;;;8.90;;
18360;SDS011;9308;48.550;9.108;2022-09-25T12:35:12;9.63;;;8.70;;
18360;SDS011;9308;48.550;9.108;2022-09-25T12:37:30;9.47;;;8.70;;
18360;SDS011;9308;48.550;9.108;2022-09-25T12:43:40;9.90;;;9.03;;
18360;SDS011;9308;48.550;9.108;2022-09-25T12:46:38;10.30;;;9.30;;
18360;SDS011;9308;48.550;9.108;2022-09-25T12:49:27;10.20;;;9.40;;
18360;SDS011;9308;48.550;9.108;2022-09-25T12:52:02;10.03;;;9.23;;
18360;SDS011;9308;48.550;9.108;2022-09-25T13:03:04;10.27;;;9.33;;
18360;SDS011;9308;48.550;9.108;2022-09-25T13:05:34;10.80;;;9.90;;
18360;SDS011;9308;48.550;9.108;2022-09-25T13:10:52;12.90;;;11.67;;
18360;SDS011;9308;48.550;9.108;2022-09-25T13:13:27;13.90;;;12.50;;
18360;SDS011;9308;48.550;9.108;2022-09-25T13:15:57;12.67;;;11.37;;
18360;SDS011;9308;48.550;9.108;2022-09-25T13:18:25;12.80;;;11.63;;
18360;SDS011;9308;48.550;9.108;2022-09-25T13:20:56;12.90;;;11.53;;
18360;SDS011;9308;48.550;9.108;2022-09-25T13:23:36;13.93;;;12.50;;
18360;SDS011;9308;48.550;9.108;2022-09-25T13:26:08;13.03;;;11.93;;
18360;SDS011;9308;48.550;9.108;2022-09-25T13:28:36;12.83;;;11.73;;
18360;SDS011;9308;48.550;9.108;2022-09-25T13:33:44;11.23;;;10.33;;
18360;SDS011;9308;48.550;9.108;2022-09-25T13:38:53;12.13;;;10.67;;
18360;SDS011;9308;48.550;9.108;2022-09-25T13:41:47;10.97;;;9.87;;
18360;SDS011;9308;48.550;9.108;2022-09-25T13:49:49;11.10;;;10.10;;
18360;SDS011;9308;48.550;9.108;2022-09-25T13:52:29;11.70;;;10.60;;
18360;SDS011;9308;48.550;9.108;2022-09-25T14:03:55;11.87;;;10.77;;
18360;SDS011;9308;48.550;9.108;2022-09-25T14:06:09;11.60;;;10.60;;
18360;SDS011;9308;48.550;9.108;2022-09-25T14:08:38;14.37;;;12.83;;
18360;SDS011;9308;48.550;9.108;2022-09-25T14:11:07;11.53;;;10.60;;
18360;SDS011;9308;48.550;9.108;2022-09-25T14:13:34;13.27;;;12.17;;
18360;SDS011;9308;48.550;9.108;2022-09-25T14:16:01;11.97;;;10.87;;
18360;SDS011;9308;48.550;9.108;2022-09-25T14:18:36;13.20;;;11.20;;
18360;SDS011;9308;48.550;9.108;2022-09-25T14:21:05;11.33;;;10.33;;
18360;SDS011;9308;48.550;9.108;2022-09-25T14:23:31;11.57;;;10.37;;
18360;SDS011;9308;48.550;9.108;2022-09-25T14:26:01;10.90;;;10.00;;
18360;SDS011;9308;48.550;9.108;2022-09-25T14:28:53;11.20;;;10.30;;
18360;SDS011;9308;48.550;9.108;2022-09-25T14:31:33;11.00;;;9.87;;
18360;SDS011;9308;48.550;9.108;2022-09-25T14:40:27;10.67;;;9.67;;
18360;SDS011;9308;48.550;9.108;2022-09-25T14:45:50;10.20;;;9.50;;
18360;SDS011;9308;48.550;9.108;2022-09-25T14:48:29;10.43;;;9.57;;
18360;SDS011;9308;48.550;9.108;2022-09-25T14:51:05;9.90;;;9.10;;
18360;SDS011;9308;48.550;9.108;2022-09-25T14:53:48;10.50;;;9.70;;
18360;SDS011;9308;48.550;9.108;2022-09-25T14:56:18;10.87;;;9.97;;
18360;SDS011;9308;48.550;9.108;2022-09-25T14:58:50;10.97;;;10.17;;
18360;SDS011;9308;48.550;9.108;2022-09-25T15:01:24;11.40;;;10.47;;
18360;SDS011;9308;48.550;9.108;2022-09-25T15:03:52;12.67;;;11.43;;
18360;SDS011;9308;48.550;9.108;2022-09-25T15:06:32;13.50;;;12.30;;
18360;SDS011;9308;48.550;9.108;2022-09-25T15:08:59;13.83;;;12.50;;
18360;SDS011;9308;48.550;9.108;2022-09-25T15:11:36;14.87;;;13.40;;
18360;SDS011;9308;48.550;9.108;2022-09-25T15:14:16;14.70;;;13.43;;
18360;SDS011;9308;48.550;9.108;2022-09-25T15:16:44;15.83;;;14.20;;
18360;SDS011;9308;48.550;9.108;2022-09-25T15:19:30;19.53;;;17.40;;
18360;SDS011;9308;48.550;9.108;2022-09-25T15:21:58;17.27;;;14.90;;
18360;SDS011;9308;48.550;9.108;2022-09-25T15:24:26;17.77;;;16.17;;
18360;SDS011;9308;48.550;9.108;2022-09-25T15:26:56;15.57;;;14.27;;
18360;SDS011;9308;48.550;9.108;2022-09-25T15:29:32;17.13;;;15.37;;
18360;SDS011;9308;48.550;9.108;2022-09-25T15:32:02;15.20;;;13.90;;
18360;SDS011;9308;48.550;9.108;2022-09-25T15:34:30;15.50;;;14.10;;
18360;SDS011;9308;48.550;9.108;2022-09-25T15:37:05;15.47;;;14.17;;
18360;SDS011;9308;48.550;9.108;2022-09-25T15:39:42;14.90;;;13.60;;
18360;SDS011;9308;48.550;9.108;2022-09-25T15:42:11;14.27;;;12.97;;
18360;SDS011;9308;48.550;9.108;2022-09-25T15:44:37;14.30;;;13.10;;
18360;SDS011;9308;48.550;9.108;2022-09-25T15:47:03;15.33;;;13.70;;
18360;SDS011;9308;48.550;9.108;2022-09-25T15:49:33;16.60;;;14.80;;
18360;SDS011;9308;48.550;9.108;2022-09-25T15:52:15;14.87;;;13.53;;
18360;SDS011;9308;48.550;9.108;2022-09-25T15:54:47;15.83;;;14.30;;
18360;SDS011;9308;48.550;9.108;2022-09-25T15:57:22;16.40;;;15.00;;
18360;SDS011;9308;48.550;9.108;2022-09-25T15:59:50;16.77;;;15.27;;
18360;SDS011;9308;48.550;9.108;2022-09-25T16:02:36;17.80;;;16.17;;
18360;SDS011;9308;48.550;9.108;2022-09-25T16:05:29;16.70;;;15.10;;
18360;SDS011;9308;48.550;9.108;2022-09-25T16:13:30;15.57;;;14.17;;
18360;SDS011;9308;48.550;9.108;2022-09-25T16:15:56;18.03;;;14.87;;
18360;SDS011;9308;48.550;9.108;2022-09-25T16:18:24;16.57;;;14.27;;
18360;SDS011;9308;48.550;9.108;2022-09-25T16:20:57;16.40;;;14.80;;
18360;SDS011;9308;48.550;9.108;2022-09-25T16:23:35;15.00;;;13.70;;
18360;SDS011;9308;48.550;9.108;2022-09-25T16:26:02;16.10;;;14.50;;
18360;SDS011;9308;48.550;9.108;2022-09-25T16:28:30;18.13;;;16.30;;
18360;SDS011;9308;48.550;9.108;2022-09-25T16:31:08;17.27;;;15.60;;
18360;SDS011;9308;48.550;9.108;2022-09-25T16:33:38;17.70;;;15.97;;
18360;SDS011;9308;48.550;9.108;2022-09-25T16:36:07;16.40;;;14.83;;
18360;SDS011;9308;48.550;9.108;2022-09-25T16:38:40;16.60;;;15.10;;
18360;SDS011;9308;48.550;9.108;2022-09-25T16:43:46;16.90;;;15.40;;
18360;SDS011;9308;48.550;9.108;2022-09-25T16:46:26;17.30;;;15.70;;
18360;SDS011;9308;48.550;9.108;2022-09-25T16:48:58;16.60;;;14.70;;
18360;SDS011;9308;48.550;9.108;2022-09-25T16:51:25;18.53;;;16.73;;
18360;SDS011;9308;48.550;9.108;2022-09-25T16:53:52;16.80;;;15.10;;
18360;SDS011;9308;48.550;9.108;2022-09-25T16:56:19;18.07;;;16.23;;
18360;SDS011;9308;48.550;9.108;2022-09-25T16:58:50;18.53;;;16.50;;
18360;SDS011;9308;48.550;9.108;2022-09-25T17:01:15;18.03;;;16.23;;
18360;SDS011;9308;48.550;9.108;2022-09-25T17:03:42;19.50;;;17.50;;
18360;SDS011;9308;48.550;9.108;2022-09-25T17:06:19;18.20;;;16.50;;
18360;SDS011;9308;48.550;9.108;2022-09-25T17:08:47;18.33;;;16.40;;
18360;SDS011;9308;48.550;9.108;2022-09-25T17:11:14;18.87;;;17.03;;
18360;SDS011;9308;48.550;9.108;2022-09-25T17:13:41;19.83;;;17.77;;